createdAt,value
2018-01-17T00:00:48.948Z,4.81
2018-01-17T00:01:49.741Z,4.75
2018-01-17T00:02:49.674Z,4.81
2018-01-17T00:03:48.857Z,4.75
2018-01-17T00:04:49.149Z,4.81
2018-01-17T00:05:49.173Z,4.81
2018-01-17T00:06:49.355Z,4.81
2018-01-17T00:07:48.669Z,4.81
2018-01-17T00:08:49.370Z,4.81
2018-01-17T00:09:49.305Z,4.81
2018-01-17T00:10:48.949Z,4.81
2018-01-17T00:11:49.376Z,4.81
2018-01-17T00:12:49.130Z,4.81
2018-01-17T00:13:48.893Z,4.81
2018-01-17T00:14:49.105Z,4.81
2018-01-17T00:15:49.079Z,4.81
2018-01-17T00:16:48.959Z,4.81
2018-01-17T00:17:48.967Z,4.81
2018-01-17T00:18:49.073Z,4.81
2018-01-17T00:19:49.698Z,4.81
2018-01-17T00:20:49.202Z,4.81
2018-01-17T00:21:48.896Z,4.81
2018-01-17T00:22:49.047Z,4.81
2018-01-17T00:23:48.949Z,4.81
2018-01-17T00:24:48.661Z,4.81
2018-01-17T00:25:49.091Z,4.81
2018-01-17T00:26:49.072Z,4.81
2018-01-17T00:27:48.870Z,4.81
2018-01-17T00:28:48.977Z,4.81
2018-01-17T00:29:48.710Z,4.81
2018-01-17T00:30:49.074Z,4.81
2018-01-17T00:31:48.721Z,4.81
2018-01-17T00:32:48.703Z,4.81
2018-01-17T00:33:48.879Z,4.81
2018-01-17T00:34:49.744Z,4.81
2018-01-17T00:35:48.750Z,4.81
2018-01-17T00:36:49.102Z,4.87
2018-01-17T00:37:48.853Z,4.87
2018-01-17T00:38:48.982Z,4.87
2018-01-17T00:39:49.205Z,4.81
2018-01-17T00:40:49.106Z,4.81
2018-01-17T00:41:49.058Z,4.87
2018-01-17T00:42:49.120Z,4.87
2018-01-17T00:43:48.900Z,4.87
2018-01-17T00:44:48.864Z,4.87
2018-01-17T00:45:48.782Z,4.81
2018-01-17T00:46:48.995Z,4.87
2018-01-17T00:47:48.839Z,4.81
2018-01-17T00:48:49.016Z,4.87
2018-01-17T00:50:48.909Z,4.81
2018-01-17T00:51:48.878Z,4.75
2018-01-17T00:52:49.628Z,4.81
2018-01-17T00:53:48.936Z,4.81
2018-01-17T00:54:48.940Z,4.81
2018-01-17T00:55:48.926Z,4.81
2018-01-17T00:56:49.034Z,4.81
2018-01-17T00:57:49.083Z,4.81
2018-01-17T00:58:48.937Z,4.75
2018-01-17T00:59:48.965Z,4.81
2018-01-17T01:00:49.288Z,4.81
2018-01-17T01:01:49.106Z,4.81
2018-01-17T01:02:48.614Z,4.81
2018-01-17T01:03:49.178Z,4.81
2018-01-17T01:04:49.246Z,4.81
2018-01-17T01:05:48.841Z,4.81
2018-01-17T01:06:49.563Z,4.81
2018-01-17T01:07:49.018Z,4.81
2018-01-17T01:08:48.658Z,4.81
2018-01-17T01:09:49.010Z,4.81
2018-01-17T01:10:49.091Z,4.81
2018-01-17T01:11:48.947Z,4.81
2018-01-17T01:12:49.330Z,4.87
2018-01-17T01:13:48.936Z,4.81
2018-01-17T01:14:49.113Z,4.81
2018-01-17T01:15:49.119Z,4.81
2018-01-17T01:16:49.348Z,4.81
2018-01-17T01:17:49.306Z,4.81
2018-01-17T01:18:49.819Z,4.81
2018-01-17T01:19:49.751Z,4.81
2018-01-17T01:20:48.704Z,4.81
2018-01-17T01:21:49.486Z,4.81
2018-01-17T01:22:49.038Z,4.81
2018-01-17T01:23:49.261Z,4.81
2018-01-17T01:24:49.102Z,4.87
2018-01-17T01:25:48.925Z,4.87
2018-01-17T01:26:49.060Z,4.87
2018-01-17T01:27:48.788Z,4.87
2018-01-17T01:28:49.447Z,4.87
2018-01-17T01:29:49.110Z,4.87
2018-01-17T01:30:48.647Z,4.94
2018-01-17T01:31:49.088Z,4.87
2018-01-17T01:32:49.032Z,4.94
2018-01-17T01:33:49.155Z,4.94
2018-01-17T01:34:49.244Z,4.94
2018-01-17T01:35:48.975Z,5
2018-01-17T01:36:49.219Z,5.06
2018-01-17T01:37:49.095Z,5.06
2018-01-17T01:38:49.201Z,5.06
2018-01-17T01:39:49.361Z,5.06
2018-01-17T01:40:48.961Z,5.12
2018-01-17T01:41:49.009Z,5.12
2018-01-17T01:42:49.393Z,5.12
2018-01-17T01:43:49.172Z,5.12
2018-01-17T01:44:48.937Z,5.12
2018-01-17T01:45:48.912Z,5.19
2018-01-17T01:46:48.882Z,5.12
2018-01-17T01:47:48.904Z,5.19
2018-01-17T01:48:49.318Z,5.19
2018-01-17T01:49:49.077Z,5.19
2018-01-17T01:50:49.211Z,5.19
2018-01-17T01:51:48.883Z,5.25
2018-01-17T01:52:48.714Z,5.19
2018-01-17T01:53:48.772Z,5.25
2018-01-17T01:54:49.773Z,5.25
2018-01-17T01:55:48.815Z,5.25
2018-01-17T01:56:48.999Z,5.31
2018-01-17T01:57:49.429Z,5.25
2018-01-17T01:58:48.930Z,5.31
2018-01-17T01:59:49.147Z,5.31
2018-01-17T02:00:48.829Z,5.31
2018-01-17T02:01:49.956Z,5.31
2018-01-17T02:02:48.843Z,5.37
2018-01-17T02:03:49.103Z,5.37
2018-01-17T02:04:49.076Z,5.31
2018-01-17T02:05:48.878Z,5.37
2018-01-17T02:06:49.722Z,5.37
2018-01-17T02:07:49.218Z,5.37
2018-01-17T02:08:48.864Z,5.37
2018-01-17T02:09:49.316Z,5.37
2018-01-17T02:10:49.311Z,5.37
2018-01-17T02:11:49.031Z,5.37
2018-01-17T02:12:49.033Z,5.37
2018-01-17T02:13:49.118Z,5.44
2018-01-17T02:14:49.420Z,5.44
2018-01-17T02:15:49.166Z,5.37
2018-01-17T02:16:50.011Z,5.44
2018-01-17T02:17:49.301Z,5.37
2018-01-17T02:18:49.067Z,5.44
2018-01-17T02:19:49.191Z,5.37
2018-01-17T02:20:49.444Z,5.44
2018-01-17T02:21:49.003Z,5.37
2018-01-17T02:22:49.224Z,5.44
2018-01-17T02:23:48.870Z,5.44
2018-01-17T02:24:48.904Z,5.37
2018-01-17T02:25:48.916Z,5.44
2018-01-17T02:26:49.113Z,5.37
2018-01-17T02:27:49.021Z,5.44
2018-01-17T02:28:49.242Z,5.37
2018-01-17T02:29:49.372Z,5.44
2018-01-17T02:30:48.822Z,5.44
2018-01-17T02:31:48.930Z,5.44
2018-01-17T02:32:48.878Z,5.37
2018-01-17T02:33:49.029Z,5.37
2018-01-17T02:34:49.190Z,5.44
2018-01-17T02:35:49.000Z,5.44
2018-01-17T02:36:49.219Z,5.44
2018-01-17T02:37:49.176Z,5.37
2018-01-17T02:38:49.251Z,5.44
2018-01-17T02:39:49.217Z,5.37
2018-01-17T02:40:49.006Z,5.31
2018-01-17T02:41:49.328Z,5.19
2018-01-17T02:42:49.076Z,5.19
2018-01-17T02:43:49.472Z,5.06
2018-01-17T02:44:49.157Z,5
2018-01-17T02:45:49.041Z,4.94
2018-01-17T02:46:49.374Z,4.94
2018-01-17T02:47:49.381Z,4.87
2018-01-17T02:48:49.457Z,4.87
2018-01-17T02:49:49.320Z,4.87
2018-01-17T02:50:49.551Z,4.81
2018-01-17T02:51:49.077Z,4.87
2018-01-17T02:52:49.261Z,4.81
2018-01-17T02:53:48.870Z,4.81
2018-01-17T02:54:49.353Z,4.81
2018-01-17T02:55:48.976Z,4.81
2018-01-17T02:56:49.241Z,4.81
2018-01-17T02:57:49.067Z,4.81
2018-01-17T02:58:49.330Z,4.81
2018-01-17T02:59:49.321Z,4.81
2018-01-17T03:00:49.063Z,4.87
2018-01-17T03:01:49.171Z,4.87
2018-01-17T03:02:49.288Z,4.87
2018-01-17T03:03:49.824Z,4.87
2018-01-17T03:04:49.301Z,4.87
2018-01-17T03:05:49.019Z,4.87
2018-01-17T03:06:49.229Z,4.87
2018-01-17T03:07:49.579Z,4.87
2018-01-17T03:08:49.312Z,4.94
2018-01-17T03:09:49.150Z,4.94
2018-01-17T03:10:49.340Z,4.94
2018-01-17T03:11:49.428Z,4.94
2018-01-17T03:12:49.383Z,4.94
2018-01-17T03:13:49.284Z,5
2018-01-17T03:14:49.377Z,5
2018-01-17T03:15:49.205Z,5
2018-01-17T03:16:49.057Z,5.06
2018-01-17T03:17:49.929Z,5.06
2018-01-17T03:18:49.216Z,5.06
2018-01-17T03:19:49.041Z,5.06
2018-01-17T03:20:49.524Z,5.12
2018-01-17T03:21:49.140Z,5.12
2018-01-17T03:22:49.193Z,5.12
2018-01-17T03:23:49.212Z,5.25
2018-01-17T03:24:49.382Z,5.31
2018-01-17T03:25:49.332Z,5.31
2018-01-17T03:26:49.158Z,5.37
2018-01-17T03:27:49.196Z,5.31
2018-01-17T03:28:49.155Z,5.37
2018-01-17T03:29:49.259Z,5.44
2018-01-17T03:30:49.226Z,5.37
2018-01-17T03:31:49.033Z,5.44
2018-01-17T03:32:49.219Z,5.44
2018-01-17T03:33:49.177Z,5.5
2018-01-17T03:34:49.274Z,5.44
2018-01-17T03:35:49.206Z,5.5
2018-01-17T03:36:49.326Z,5.5
2018-01-17T03:37:49.130Z,5.5
2018-01-17T03:38:49.338Z,5.5
2018-01-17T03:39:49.200Z,5.5
2018-01-17T03:40:50.091Z,5.5
2018-01-17T03:41:49.011Z,5.44
2018-01-17T03:42:49.787Z,5.5
2018-01-17T03:43:50.263Z,5.44
2018-01-17T03:44:49.207Z,5.44
2018-01-17T03:45:52.058Z,5.37
2018-01-17T03:46:49.247Z,5.31
2018-01-17T03:47:49.946Z,5.25
2018-01-17T03:48:49.273Z,5.19
2018-01-17T03:49:49.189Z,5.12
2018-01-17T03:50:49.353Z,5.06
2018-01-17T03:51:49.586Z,5.06
2018-01-17T03:52:49.027Z,5
2018-01-17T03:53:49.922Z,5.06
2018-01-17T03:54:49.343Z,5
2018-01-17T03:55:49.508Z,5
2018-01-17T03:56:49.696Z,4.94
2018-01-17T03:57:49.475Z,5
2018-01-17T03:58:49.204Z,4.94
2018-01-17T03:59:49.328Z,4.94
2018-01-17T04:00:49.203Z,4.94
2018-01-17T04:01:49.158Z,4.94
2018-01-17T04:02:49.648Z,4.87
2018-01-17T04:03:49.659Z,4.87
2018-01-17T04:04:49.097Z,4.87
2018-01-17T04:05:50.016Z,4.75
2018-01-17T04:06:51.055Z,4.75
2018-01-17T04:07:49.388Z,4.75
2018-01-17T04:08:49.274Z,4.81
2018-01-17T04:09:49.299Z,4.75
2018-01-17T04:10:49.202Z,4.75
2018-01-17T04:11:50.046Z,4.69
2018-01-17T04:12:49.266Z,4.69
2018-01-17T04:13:49.215Z,4.69
2018-01-17T04:14:49.096Z,4.62
2018-01-17T04:15:49.358Z,4.69
2018-01-17T04:16:49.240Z,4.69
2018-01-17T04:17:49.415Z,4.69
2018-01-17T04:18:49.685Z,4.62
2018-01-17T04:19:49.554Z,4.69
2018-01-17T04:20:49.749Z,4.62
2018-01-17T04:21:49.981Z,4.62
2018-01-17T04:22:49.585Z,4.5
2018-01-17T04:23:49.461Z,4.5
2018-01-17T04:24:50.602Z,4.5
2018-01-17T04:25:49.814Z,4.5
2018-01-17T04:26:49.207Z,4.56
2018-01-17T04:27:49.720Z,4.5
2018-01-17T04:28:49.290Z,4.5
2018-01-17T04:29:49.400Z,4.56
2018-01-17T04:30:49.125Z,4.56
2018-01-17T04:31:49.393Z,4.56
2018-01-17T04:32:49.444Z,4.56
2018-01-17T04:33:49.393Z,4.5
2018-01-17T04:34:49.433Z,4.56
2018-01-17T04:35:49.299Z,4.5
2018-01-17T04:36:49.216Z,4.56
2018-01-17T04:37:49.498Z,4.56
2018-01-17T04:38:49.184Z,4.5
2018-01-17T04:39:49.196Z,4.5
2018-01-17T04:40:49.399Z,4.5
2018-01-17T04:41:50.096Z,4.5
2018-01-17T04:42:49.933Z,4.37
2018-01-17T04:43:49.799Z,4.37
2018-01-17T04:44:50.313Z,4.31
2018-01-17T04:45:50.352Z,4.31
2018-01-17T04:46:51.366Z,4.31
2018-01-17T04:47:50.774Z,4.31
2018-01-17T04:48:50.462Z,4.31
2018-01-17T04:49:50.443Z,4.25
2018-01-17T04:50:50.651Z,4.31
2018-01-17T04:51:50.932Z,4.25
2018-01-17T04:52:50.577Z,4.25
2018-01-17T04:53:50.176Z,4.19
2018-01-17T04:54:50.671Z,4.25
2018-01-17T04:55:50.597Z,4.25
2018-01-17T04:56:50.630Z,4.25
2018-01-17T04:57:50.519Z,4.19
2018-01-17T04:58:50.622Z,4.19
2018-01-17T04:59:51.572Z,4.19
2018-01-17T05:00:50.508Z,4.19
2018-01-17T05:01:49.911Z,4.19
2018-01-17T05:02:50.403Z,4.12
2018-01-17T05:03:50.663Z,4.19
2018-01-17T05:04:50.643Z,4.12
2018-01-17T05:05:51.456Z,4.12
2018-01-17T05:06:50.508Z,4.06
2018-01-17T05:07:50.203Z,4.06
2018-01-17T05:08:50.448Z,4
2018-01-17T05:09:50.413Z,4.06
2018-01-17T05:10:50.389Z,4
2018-01-17T05:11:51.222Z,4
2018-01-17T05:12:50.465Z,4.06
2018-01-17T05:13:50.328Z,4.06
2018-01-17T05:14:50.219Z,4.12
2018-01-17T05:15:50.687Z,4.12
2018-01-17T05:16:50.470Z,4.12
2018-01-17T05:17:50.758Z,4.06
2018-01-17T05:18:51.805Z,4.06
2018-01-17T05:19:50.167Z,4.06
2018-01-17T05:20:50.388Z,4.06
2018-01-17T05:21:50.652Z,4.06
2018-01-17T05:22:50.482Z,4.06
2018-01-17T05:23:50.715Z,4
2018-01-17T05:24:50.695Z,4
2018-01-17T05:25:50.375Z,4
2018-01-17T05:26:52.018Z,4
2018-01-17T05:27:50.333Z,4
2018-01-17T05:28:50.432Z,4
2018-01-17T05:29:50.566Z,4
2018-01-17T05:30:50.103Z,3.94
2018-01-17T05:31:50.608Z,4
2018-01-17T05:32:51.986Z,3.94
2018-01-17T05:33:50.647Z,3.94
2018-01-17T05:34:51.266Z,3.94
2018-01-17T05:35:50.248Z,3.94
2018-01-17T05:36:50.609Z,3.94
2018-01-17T05:37:50.576Z,3.94
2018-01-17T05:38:50.620Z,4
2018-01-17T05:39:50.805Z,3.94
2018-01-17T05:40:50.452Z,4
2018-01-17T05:41:51.642Z,4
2018-01-17T05:42:50.598Z,4
2018-01-17T05:43:50.500Z,4
2018-01-17T05:44:50.527Z,4
2018-01-17T05:45:50.660Z,4
2018-01-17T05:46:50.877Z,4
2018-01-17T05:47:50.472Z,4
2018-01-17T05:48:50.307Z,4.06
2018-01-17T05:49:50.232Z,4
2018-01-17T05:50:50.405Z,4
2018-01-17T05:51:50.305Z,4.06
2018-01-17T05:52:50.444Z,4
2018-01-17T05:53:50.621Z,4.06
2018-01-17T05:54:50.490Z,4.06
2018-01-17T05:55:50.605Z,4.06
2018-01-17T05:56:50.378Z,4
2018-01-17T05:57:50.719Z,4.06
2018-01-17T05:58:50.452Z,4.06
2018-01-17T05:59:50.514Z,4.12
2018-01-17T06:00:50.385Z,4.06
2018-01-17T06:01:50.600Z,4.06
2018-01-17T06:02:50.204Z,4.12
2018-01-17T06:03:50.341Z,4.06
2018-01-17T06:04:50.435Z,4.12
2018-01-17T06:05:50.446Z,4.12
2018-01-17T06:06:50.602Z,4.12
2018-01-17T06:07:51.069Z,4
2018-01-17T06:08:50.645Z,3.94
2018-01-17T06:09:50.485Z,3.94
2018-01-17T06:10:50.917Z,3.87
2018-01-17T06:11:50.562Z,3.75
2018-01-17T06:12:50.680Z,3.69
2018-01-17T06:13:50.211Z,3.56
2018-01-17T06:14:50.811Z,3.5
2018-01-17T06:15:50.489Z,3.5
2018-01-17T06:16:50.072Z,3.44
2018-01-17T06:17:50.638Z,3.44
2018-01-17T06:18:51.078Z,3.37
2018-01-17T06:19:50.730Z,3.37
2018-01-17T06:20:50.273Z,3.37
2018-01-17T06:21:50.269Z,3.31
2018-01-17T06:22:50.553Z,3.31
2018-01-17T06:23:50.656Z,3.37
2018-01-17T06:24:50.433Z,3.31
2018-01-17T06:25:50.504Z,3.25
2018-01-17T06:26:50.865Z,3.25
2018-01-17T06:27:50.648Z,3.25
2018-01-17T06:28:50.063Z,3.25
2018-01-17T06:29:50.921Z,3.25
2018-01-17T06:30:50.342Z,3.31
2018-01-17T06:31:50.558Z,3.31
2018-01-17T06:32:50.824Z,3.37
2018-01-17T06:33:50.266Z,3.37
2018-01-17T06:34:51.273Z,3.37
2018-01-17T06:35:50.338Z,3.37
2018-01-17T06:36:50.236Z,3.37
2018-01-17T06:37:51.367Z,3.37
2018-01-17T06:38:50.347Z,3.37
2018-01-17T06:39:50.385Z,3.37
2018-01-17T06:40:50.623Z,3.37
2018-01-17T06:41:51.835Z,3.37
2018-01-17T06:42:51.840Z,3.37
2018-01-17T06:43:50.948Z,3.44
2018-01-17T06:44:50.479Z,3.44
2018-01-17T06:45:50.738Z,3.44
2018-01-17T06:46:50.522Z,3.37
2018-01-17T06:47:50.513Z,3.37
2018-01-17T06:48:50.912Z,3.37
2018-01-17T06:49:50.661Z,3.37
2018-01-17T06:50:51.476Z,3.37
2018-01-17T06:51:50.392Z,3.37
2018-01-17T06:52:50.706Z,3.37
2018-01-17T06:53:50.743Z,3.44
2018-01-17T06:54:50.630Z,3.44
2018-01-17T06:55:50.647Z,3.44
2018-01-17T06:56:51.826Z,3.5
2018-01-17T06:57:50.671Z,3.5
2018-01-17T06:58:50.919Z,3.56
2018-01-17T06:59:50.296Z,3.56
2018-01-17T07:00:50.521Z,3.56
2018-01-17T07:01:50.678Z,3.56
2018-01-17T07:02:50.548Z,3.56
2018-01-17T07:03:50.646Z,3.56
2018-01-17T07:04:50.993Z,3.62
2018-01-17T07:05:51.162Z,3.62
2018-01-17T07:06:51.192Z,3.62
2018-01-17T07:07:50.684Z,3.62
2018-01-17T07:08:50.862Z,3.62
2018-01-17T07:09:50.929Z,3.69
2018-01-17T07:10:51.479Z,3.62
2018-01-17T07:11:50.690Z,3.69
2018-01-17T07:12:51.325Z,3.75
2018-01-17T07:13:51.638Z,3.75
2018-01-17T07:14:51.184Z,3.81
2018-01-17T07:15:50.476Z,3.87
2018-01-17T07:16:50.804Z,3.81
2018-01-17T07:17:50.992Z,3.87
2018-01-17T07:18:50.729Z,3.87
2018-01-17T07:19:51.479Z,3.94
2018-01-17T07:20:50.216Z,3.87
2018-01-17T07:21:51.704Z,3.94
2018-01-17T07:22:50.229Z,3.94
2018-01-17T07:23:50.555Z,3.94
2018-01-17T07:24:50.870Z,3.87
2018-01-17T07:25:50.818Z,3.87
2018-01-17T07:26:51.140Z,3.87
2018-01-17T07:27:50.552Z,3.87
2018-01-17T07:28:51.181Z,3.87
2018-01-17T07:29:50.984Z,3.87
2018-01-17T07:30:52.748Z,3.87
2018-01-17T07:31:51.224Z,3.87
2018-01-17T07:32:50.909Z,3.94
2018-01-17T07:33:52.433Z,3.87
2018-01-17T07:34:50.567Z,3.87
2018-01-17T07:35:50.870Z,3.87
2018-01-17T07:36:50.681Z,3.87
2018-01-17T07:37:50.789Z,3.87
2018-01-17T07:38:49.835Z,3.87
2018-01-17T07:39:49.868Z,3.87
2018-01-17T07:40:50.361Z,3.94
2018-01-17T07:41:49.882Z,3.87
2018-01-17T07:42:50.006Z,3.87
2018-01-17T07:43:51.014Z,3.94
2018-01-17T07:44:49.872Z,3.94
2018-01-17T07:45:49.317Z,3.87
2018-01-17T07:46:49.289Z,3.94
2018-01-17T07:47:49.794Z,3.94
2018-01-17T07:48:49.983Z,3.87
2018-01-17T07:49:50.158Z,3.94
2018-01-17T07:50:49.554Z,3.87
2018-01-17T07:51:49.904Z,3.94
2018-01-17T07:52:49.932Z,3.87
2018-01-17T07:53:49.893Z,3.94
2018-01-17T07:54:49.950Z,3.87
2018-01-17T07:55:50.632Z,3.87
2018-01-17T07:56:49.544Z,3.94
2018-01-17T07:57:49.781Z,3.87
2018-01-17T07:58:50.190Z,3.87
2018-01-17T07:59:49.715Z,3.87
2018-01-17T08:00:50.561Z,3.87
2018-01-17T08:01:50.607Z,3.94
2018-01-17T08:02:50.587Z,3.94
2018-01-17T08:03:49.913Z,3.94
2018-01-17T08:04:49.905Z,3.94
2018-01-17T08:05:51.789Z,4
2018-01-17T08:06:49.883Z,4
2018-01-17T08:07:50.130Z,4
2018-01-17T08:08:50.163Z,4
2018-01-17T08:09:50.487Z,4
2018-01-17T08:10:49.898Z,4
2018-01-17T08:11:49.586Z,4
2018-01-17T08:12:49.826Z,4
2018-01-17T08:13:49.787Z,4
2018-01-17T08:14:50.501Z,4
2018-01-17T08:15:51.189Z,4
2018-01-17T08:16:50.044Z,4.06
2018-01-17T08:17:51.046Z,4.06
2018-01-17T08:18:50.045Z,4.06
2018-01-17T08:19:50.019Z,4.06
2018-01-17T08:20:49.666Z,4.06
2018-01-17T08:21:49.613Z,4.06
2018-01-17T08:22:49.879Z,4.06
2018-01-17T08:23:50.338Z,4.06
2018-01-17T08:24:50.042Z,4.12
2018-01-17T08:25:49.908Z,4.12
2018-01-17T08:26:49.689Z,4.06
2018-01-17T08:27:49.584Z,4.12
2018-01-17T08:28:50.889Z,4.12
2018-01-17T08:29:50.045Z,4.12
2018-01-17T08:30:50.255Z,4.12
2018-01-17T08:31:49.733Z,4.12
2018-01-17T08:32:49.781Z,4.12
2018-01-17T08:33:50.204Z,4.19
2018-01-17T08:34:49.973Z,4.12
2018-01-17T08:35:50.611Z,4.19
2018-01-17T08:36:49.943Z,4.12
2018-01-17T08:37:54.478Z,4.19
2018-01-17T08:38:50.148Z,4.19
2018-01-17T08:39:50.089Z,4.19
2018-01-17T08:40:50.060Z,4.19
2018-01-17T08:41:49.627Z,4.19
2018-01-17T08:42:49.943Z,4.12
2018-01-17T08:43:49.842Z,4.19
2018-01-17T08:44:50.421Z,4.19
2018-01-17T08:45:50.626Z,4.19
2018-01-17T08:46:51.276Z,4.19
2018-01-17T08:47:49.634Z,4.19
2018-01-17T08:48:50.002Z,4.19
2018-01-17T08:49:49.826Z,4.25
2018-01-17T08:50:49.792Z,4.19
2018-01-17T08:51:49.717Z,4.19
2018-01-17T08:52:51.487Z,4.19
2018-01-17T08:53:50.033Z,4.25
2018-01-17T08:54:50.966Z,4.19
2018-01-17T08:55:50.730Z,4.25
2018-01-17T08:56:51.164Z,4.19
2018-01-17T08:57:50.295Z,4.25
2018-01-17T08:58:49.664Z,4.25
2018-01-17T08:59:50.713Z,4.25
2018-01-17T09:00:49.694Z,4.25
2018-01-17T09:01:50.138Z,4.31
2018-01-17T09:02:49.963Z,4.31
2018-01-17T09:03:50.122Z,4.31
2018-01-17T09:04:49.275Z,4.31
2018-01-17T09:05:50.448Z,4.25
2018-01-17T09:06:50.306Z,4.31
2018-01-17T09:07:49.963Z,4.31
2018-01-17T09:08:49.933Z,4.37
2018-01-17T09:09:50.191Z,4.31
2018-01-17T09:10:50.914Z,4.37
2018-01-17T09:11:50.775Z,4.37
2018-01-17T09:12:50.886Z,4.37
2018-01-17T09:13:50.322Z,4.31
2018-01-17T09:14:50.545Z,4.37
2018-01-17T09:15:49.837Z,4.37
2018-01-17T09:16:50.306Z,4.37
2018-01-17T09:17:49.971Z,4.37
2018-01-17T09:18:49.818Z,4.37
2018-01-17T09:19:49.975Z,4.37
2018-01-17T09:20:50.102Z,4.37
2018-01-17T09:21:49.689Z,4.44
2018-01-17T09:22:50.354Z,4.44
2018-01-17T09:23:49.832Z,4.44
2018-01-17T09:24:49.870Z,4.44
2018-01-17T09:25:50.283Z,4.44
2018-01-17T09:26:50.170Z,4.44
2018-01-17T09:27:50.284Z,4.44
2018-01-17T09:28:50.324Z,4.44
2018-01-17T09:29:50.397Z,4.44
2018-01-17T09:30:49.985Z,4.44
2018-01-17T09:31:50.027Z,4.5
2018-01-17T09:32:50.201Z,4.5
2018-01-17T09:33:50.410Z,4.44
2018-01-17T09:34:51.077Z,4.5
2018-01-17T09:35:49.861Z,4.5
2018-01-17T09:36:51.265Z,4.44
2018-01-17T09:37:49.528Z,4.5
2018-01-17T09:38:50.171Z,4.5
2018-01-17T09:39:50.693Z,4.56
2018-01-17T09:40:49.150Z,4.56
2018-01-17T09:41:50.043Z,4.56
2018-01-17T09:42:50.320Z,4.56
2018-01-17T09:43:50.800Z,4.62
2018-01-17T09:44:50.300Z,4.62
2018-01-17T09:45:50.458Z,4.62
2018-01-17T09:46:49.886Z,4.69
2018-01-17T09:47:49.865Z,4.69
2018-01-17T09:48:50.312Z,4.69
2018-01-17T09:49:50.260Z,4.62
2018-01-17T09:50:50.549Z,4.69
2018-01-17T09:51:50.783Z,4.69
2018-01-17T09:52:50.273Z,4.69
2018-01-17T09:53:50.158Z,4.69
2018-01-17T09:54:51.079Z,4.62
2018-01-17T09:55:50.412Z,4.62
2018-01-17T09:56:50.095Z,4.62
2018-01-17T09:57:50.152Z,4.62
2018-01-17T09:58:50.428Z,4.62
2018-01-17T09:59:50.230Z,4.62
2018-01-17T10:00:50.142Z,4.56
2018-01-17T10:01:50.343Z,4.56
2018-01-17T10:02:50.942Z,4.56
2018-01-17T10:03:50.924Z,4.56
2018-01-17T10:04:50.523Z,4.62
2018-01-17T10:05:50.487Z,4.62
2018-01-17T10:06:50.111Z,4.62
2018-01-17T10:07:50.407Z,4.69
2018-01-17T10:08:50.321Z,4.62
2018-01-17T10:09:50.749Z,4.69
2018-01-17T10:10:50.522Z,4.62
2018-01-17T10:11:50.324Z,4.62
2018-01-17T10:12:50.484Z,4.69
2018-01-17T10:13:50.583Z,4.62
2018-01-17T10:14:50.375Z,4.69
2018-01-17T10:15:50.751Z,4.69
2018-01-17T10:16:49.959Z,4.75
2018-01-17T10:17:50.357Z,4.75
2018-01-17T10:18:50.221Z,4.81
2018-01-17T10:19:50.510Z,4.81
2018-01-17T10:20:50.554Z,4.75
2018-01-17T10:21:50.513Z,4.81
2018-01-17T10:22:50.237Z,4.81
2018-01-17T10:23:50.024Z,4.87
2018-01-17T10:24:50.130Z,4.87
2018-01-17T10:25:51.713Z,5
2018-01-17T10:26:50.269Z,5
2018-01-17T10:27:50.360Z,5.06
2018-01-17T10:28:50.186Z,5.06
2018-01-17T10:29:49.741Z,5.12
2018-01-17T10:30:50.329Z,5.12
2018-01-17T10:31:50.510Z,5.12
2018-01-17T10:32:50.459Z,5.19
2018-01-17T10:33:50.147Z,5.19
2018-01-17T10:34:50.168Z,5.19
2018-01-17T10:35:50.808Z,5.25
2018-01-17T10:36:50.451Z,5.25
2018-01-17T10:37:51.184Z,5.25
2018-01-17T10:38:50.026Z,5.31
2018-01-17T10:39:50.358Z,5.31
2018-01-17T10:40:51.472Z,5.37
2018-01-17T10:41:50.434Z,5.44
2018-01-17T10:42:50.134Z,5.44
2018-01-17T10:43:51.247Z,5.5
2018-01-17T10:44:50.118Z,5.44
2018-01-17T10:45:50.745Z,5.5
2018-01-17T10:46:50.112Z,5.5
2018-01-17T10:47:52.480Z,5.5
2018-01-17T10:48:50.538Z,5.56
2018-01-17T10:49:51.615Z,5.56
2018-01-17T10:50:50.252Z,5.56
2018-01-17T10:51:50.193Z,5.62
2018-01-17T10:52:49.842Z,5.56
2018-01-17T10:53:50.010Z,5.56
2018-01-17T10:54:50.597Z,5.56
2018-01-17T10:55:50.584Z,5.5
2018-01-17T10:56:50.459Z,5.5
2018-01-17T10:57:51.721Z,5.44
2018-01-17T10:58:50.148Z,5.37
2018-01-17T10:59:50.134Z,5.31
2018-01-17T11:00:50.398Z,5.31
2018-01-17T11:01:51.389Z,5.25
2018-01-17T11:02:50.432Z,5.25
2018-01-17T11:03:50.691Z,5.19
2018-01-17T11:04:50.411Z,5.12
2018-01-17T11:05:50.468Z,5.12
2018-01-17T11:06:50.179Z,5.06
2018-01-17T11:07:51.495Z,5.12
2018-01-17T11:08:50.291Z,5.06
2018-01-17T11:09:51.036Z,5.06
2018-01-17T11:10:50.823Z,5
2018-01-17T11:11:50.136Z,5
2018-01-17T11:12:51.604Z,5
2018-01-17T11:13:50.244Z,5
2018-01-17T11:14:50.706Z,5
2018-01-17T11:15:50.621Z,5
2018-01-17T11:16:50.580Z,5
2018-01-17T11:17:50.937Z,5
2018-01-17T11:18:50.313Z,5
2018-01-17T11:19:50.691Z,4.94
2018-01-17T11:20:50.164Z,5
2018-01-17T11:21:50.153Z,4.94
2018-01-17T11:22:50.380Z,4.94
2018-01-17T11:23:50.287Z,4.94
2018-01-17T11:24:51.637Z,5
2018-01-17T11:25:50.497Z,4.94
2018-01-17T11:26:50.574Z,4.94
2018-01-17T11:27:51.286Z,4.94
2018-01-17T11:28:50.554Z,4.94
2018-01-17T11:29:50.777Z,5
2018-01-17T11:30:50.933Z,5.06
2018-01-17T11:31:50.240Z,5.12
2018-01-17T11:32:50.622Z,5.19
2018-01-17T11:33:50.260Z,5.25
2018-01-17T11:34:50.974Z,5.19
2018-01-17T11:35:50.604Z,5.19
2018-01-17T11:36:50.977Z,5.19
2018-01-17T11:37:50.965Z,5.19
2018-01-17T11:38:50.861Z,5.19
2018-01-17T11:39:50.265Z,5.19
2018-01-17T11:40:50.988Z,5.19
2018-01-17T11:41:50.701Z,5.12
2018-01-17T11:42:50.853Z,5.12
2018-01-17T11:43:50.611Z,5.12
2018-01-17T11:44:50.830Z,5.12
2018-01-17T11:45:50.359Z,5.12
2018-01-17T11:46:50.580Z,5.12
2018-01-17T11:47:51.751Z,5.12
2018-01-17T11:48:50.385Z,5.06
2018-01-17T11:49:50.572Z,5.06
2018-01-17T11:50:50.402Z,5.06
2018-01-17T11:51:51.734Z,5.12
2018-01-17T11:52:50.099Z,5.06
2018-01-17T11:53:50.252Z,5.12
2018-01-17T11:54:50.477Z,5.06
2018-01-17T11:55:50.480Z,5.12
2018-01-17T11:56:51.371Z,5.06
2018-01-17T11:57:50.786Z,5
2018-01-17T11:58:50.709Z,5.06
2018-01-17T11:59:50.511Z,5.06
2018-01-17T12:00:51.562Z,5.12
2018-01-17T12:01:51.499Z,5.12
2018-01-17T12:02:50.230Z,5.12
2018-01-17T12:03:50.405Z,5.12
2018-01-17T12:04:50.669Z,5.12
2018-01-17T12:05:50.394Z,5.12
2018-01-17T12:06:50.461Z,5.19
2018-01-17T12:07:50.826Z,5.25
2018-01-17T12:08:50.630Z,5.25
2018-01-17T12:09:50.943Z,5.25
2018-01-17T12:10:50.898Z,5.31
2018-01-17T12:11:50.526Z,5.37
2018-01-17T12:12:50.456Z,5.44
2018-01-17T12:13:50.748Z,5.44
2018-01-17T12:14:51.206Z,5.5
2018-01-17T12:15:50.251Z,5.56
2018-01-17T12:16:50.826Z,5.56
2018-01-17T12:17:52.009Z,5.56
2018-01-17T12:18:50.714Z,5.56
2018-01-17T12:19:51.369Z,5.56
2018-01-17T12:20:50.095Z,5.56
2018-01-17T12:21:51.159Z,5.62
2018-01-17T12:22:50.460Z,5.62
2018-01-17T12:23:50.280Z,5.62
2018-01-17T12:24:50.648Z,5.62
2018-01-17T12:25:50.621Z,5.62
2018-01-17T12:26:51.166Z,5.62
2018-01-17T12:27:50.478Z,5.56
2018-01-17T12:28:51.053Z,5.5
2018-01-17T12:29:50.672Z,5.44
2018-01-17T12:30:50.393Z,5.44
2018-01-17T12:31:50.664Z,5.37
2018-01-17T12:32:52.541Z,5.31
2018-01-17T12:33:50.776Z,5.37
2018-01-17T12:34:50.423Z,5.37
2018-01-17T12:35:50.326Z,5.5
2018-01-17T12:36:50.304Z,5.5
2018-01-17T12:37:50.468Z,5.56
2018-01-17T12:38:50.360Z,5.62
2018-01-17T12:39:50.498Z,5.69
2018-01-17T12:40:50.785Z,5.69
2018-01-17T12:41:51.009Z,5.69
2018-01-17T12:42:50.710Z,5.75
2018-01-17T12:43:50.672Z,5.75
2018-01-17T12:44:50.839Z,5.81
2018-01-17T12:45:50.769Z,5.81
2018-01-17T12:46:51.667Z,5.87
2018-01-17T12:47:51.213Z,5.87
2018-01-17T12:48:50.555Z,5.87
2018-01-17T12:49:50.568Z,5.87
2018-01-17T12:50:50.878Z,5.81
2018-01-17T12:51:50.461Z,5.81
2018-01-17T12:52:51.172Z,5.75
2018-01-17T12:53:50.395Z,5.81
2018-01-17T12:54:50.949Z,5.75
2018-01-17T12:58:51.145Z,5.81
2018-01-17T12:59:50.554Z,5.81
2018-01-17T13:00:50.295Z,5.81
2018-01-17T13:01:49.449Z,5.81
2018-01-17T13:02:49.534Z,5.87
2018-01-17T13:03:49.379Z,5.87
2018-01-17T13:04:49.392Z,5.87
2018-01-17T13:05:49.803Z,5.81
2018-01-17T13:06:49.490Z,5.81
2018-01-17T13:07:49.770Z,5.81
2018-01-17T13:08:49.270Z,5.81
2018-01-17T13:09:49.769Z,5.75
2018-01-17T13:10:49.394Z,5.81
2018-01-17T13:11:49.492Z,5.81
2018-01-17T13:12:49.590Z,5.81
2018-01-17T13:13:49.485Z,5.81
2018-01-17T13:14:49.367Z,5.87
2018-01-17T13:15:49.718Z,5.87
2018-01-17T13:16:49.442Z,5.87
2018-01-17T13:17:49.220Z,5.81
2018-01-17T13:18:49.634Z,5.81
2018-01-17T13:19:49.335Z,5.81
2018-01-17T13:20:49.832Z,5.87
2018-01-17T13:21:49.359Z,5.81
2018-01-17T13:22:49.316Z,5.81
2018-01-17T13:23:49.632Z,5.75
2018-01-17T13:24:49.300Z,5.75
2018-01-17T13:25:49.383Z,5.75
2018-01-17T13:26:49.480Z,5.75
2018-01-17T13:27:49.356Z,5.75
2018-01-17T13:28:49.310Z,5.75
2018-01-17T13:29:49.398Z,5.75